KDUC/DUC METAR and TAF weather

Enter ICAO airport designator
Station Type Date Time Source
KDUC METAR 2018/01/23 01:35 UTC NOAA

KDUC 230135Z AUTO 30006KT 10SM CLR 06/M07 A3009 RMK AO2 T00631067


Station Type Date Time Source
KDUC Decoded METAR 2018/01/23 01:35 UTC NOAA

Duncan, Halliburton Field Airport, OK, United States (KDUC) 34-28-15N 097-57-36W
Jan 22, 2018 - 08:35 PM EST / 2018.01.23 0135 UTC
Wind: from the WNW (300 degrees) at 7 MPH (6 KT):0
Visibility: 10 mile(s):0
Sky conditions: clear
Temperature: 43.3 F (6.3 C)
Dew Point: 19.9 F (-6.7 C)
Relative Humidity: 38%
Pressure (altimeter): 30.09 in. Hg (1018 hPa)
ob: KDUC 230135Z AUTO 30006KT 10SM CLR 06/M07 A3009 RMK AO2 T00631067
cycle: 1

Station Type Date Time Source
KDUC TAF UTC NOAA

Error!


Example: see airport list